sensor_id;sensor_type;location;lat;lon;timestamp;temperature;humidity
30572;DHT22;17348;50.948;10.696;2023-05-31T00:02:33;12.90;99.90
30572;DHT22;17348;50.948;10.696;2023-05-31T00:05:36;12.80;99.90
30572;DHT22;17348;50.948;10.696;2023-05-31T00:08:39;12.80;99.90
30572;DHT22;17348;50.948;10.696;2023-05-31T00:11:43;12.80;99.90
30572;DHT22;17348;50.948;10.696;2023-05-31T00:14:46;12.70;99.90
30572;DHT22;17348;50.948;10.696;2023-05-31T00:17:48;12.70;99.90
30572;DHT22;17348;50.948;10.696;2023-05-31T00:20:51;12.70;99.90
30572;DHT22;17348;50.948;10.696;2023-05-31T00:23:53;12.70;99.90
30572;DHT22;17348;50.948;10.696;2023-05-31T00:26:57;12.70;99.90
30572;DHT22;17348;50.948;10.696;2023-05-31T00:29:59;12.70;99.90
30572;DHT22;17348;50.948;10.696;2023-05-31T00:33:01;12.60;99.90
30572;DHT22;17348;50.948;10.696;2023-05-31T00:36:04;12.50;99.90
30572;DHT22;17348;50.948;10.696;2023-05-31T00:39:06;12.50;99.90
30572;DHT22;17348;50.948;10.696;2023-05-31T00:42:10;12.50;99.90
30572;DHT22;17348;50.948;10.696;2023-05-31T00:45:13;12.50;99.90
30572;DHT22;17348;50.948;10.696;2023-05-31T00:48:15;12.50;99.90
30572;DHT22;17348;50.948;10.696;2023-05-31T00:51:17;12.50;99.90
30572;DHT22;17348;50.948;10.696;2023-05-31T00:54:20;12.50;99.90
30572;DHT22;17348;50.948;10.696;2023-05-31T00:57:24;12.50;99.90
30572;DHT22;17348;50.948;10.696;2023-05-31T01:00:27;12.50;99.90
30572;DHT22;17348;50.948;10.696;2023-05-31T01:03:30;12.50;99.90
30572;DHT22;17348;50.948;10.696;2023-05-31T01:06:32;12.50;99.90
30572;DHT22;17348;50.948;10.696;2023-05-31T01:09:35;12.50;99.90
30572;DHT22;17348;50.948;10.696;2023-05-31T01:12:52;12.40;99.90
30572;DHT22;17348;50.948;10.696;2023-05-31T01:16:02;12.40;99.90
30572;DHT22;17348;50.948;10.696;2023-05-31T01:19:13;12.30;99.90
30572;DHT22;17348;50.948;10.696;2023-05-31T01:22:26;12.20;99.90
30572;DHT22;17348;50.948;10.696;2023-05-31T01:25:41;12.10;99.90
30572;DHT22;17348;50.948;10.696;2023-05-31T01:28:50;12.10;99.90
30572;DHT22;17348;50.948;10.696;2023-05-31T01:31:55;12.00;99.90
30572;DHT22;17348;50.948;10.696;2023-05-31T01:34:59;11.90;99.90
30572;DHT22;17348;50.948;10.696;2023-05-31T01:38:02;11.70;99.90
30572;DHT22;17348;50.948;10.696;2023-05-31T01:41:04;11.70;99.90
30572;DHT22;17348;50.948;10.696;2023-05-31T01:44:10;11.60;99.90
30572;DHT22;17348;50.948;10.696;2023-05-31T01:47:13;11.60;99.90
30572;DHT22;17348;50.948;10.696;2023-05-31T01:50:15;11.40;99.90
30572;DHT22;17348;50.948;10.696;2023-05-31T01:53:20;11.30;99.90
30572;DHT22;17348;50.948;10.696;2023-05-31T01:56:23;11.30;99.90
30572;DHT22;17348;50.948;10.696;2023-05-31T01:59:31;11.20;99.90
30572;DHT22;17348;50.948;10.696;2023-05-31T02:02:34;11.20;99.90
30572;DHT22;17348;50.948;10.696;2023-05-31T02:05:36;11.10;99.90
30572;DHT22;17348;50.948;10.696;2023-05-31T02:08:38;11.10;99.90
30572;DHT22;17348;50.948;10.696;2023-05-31T02:11:41;11.00;99.90
30572;DHT22;17348;50.948;10.696;2023-05-31T02:14:45;11.00;99.90
30572;DHT22;17348;50.948;10.696;2023-05-31T02:17:47;10.90;99.90
30572;DHT22;17348;50.948;10.696;2023-05-31T02:20:51;10.90;99.90
30572;DHT22;17348;50.948;10.696;2023-05-31T02:23:54;10.80;99.90
30572;DHT22;17348;50.948;10.696;2023-05-31T02:26:56;10.80;99.90
30572;DHT22;17348;50.948;10.696;2023-05-31T02:30:00;10.70;99.90
30572;DHT22;17348;50.948;10.696;2023-05-31T02:33:02;10.70;99.90
30572;DHT22;17348;50.948;10.696;2023-05-31T02:36:06;10.60;99.90
30572;DHT22;17348;50.948;10.696;2023-05-31T02:39:08;10.50;99.90
30572;DHT22;17348;50.948;10.696;2023-05-31T02:42:10;10.50;99.90
30572;DHT22;17348;50.948;10.696;2023-05-31T02:45:14;10.40;99.90
30572;DHT22;17348;50.948;10.696;2023-05-31T02:48:17;10.40;99.90
30572;DHT22;17348;50.948;10.696;2023-05-31T02:51:19;10.30;99.90
30572;DHT22;17348;50.948;10.696;2023-05-31T02:54:21;10.20;99.90
30572;DHT22;17348;50.948;10.696;2023-05-31T02:57:24;10.20;99.90
30572;DHT22;17348;50.948;10.696;2023-05-31T03:00:27;10.10;99.90
30572;DHT22;17348;50.948;10.696;2023-05-31T03:03:30;10.10;99.90
30572;DHT22;17348;50.948;10.696;2023-05-31T03:06:32;10.00;99.90
30572;DHT22;17348;50.948;10.696;2023-05-31T03:09:34;10.00;99.90
30572;DHT22;17348;50.948;10.696;2023-05-31T03:12:37;9.90;99.90
30572;DHT22;17348;50.948;10.696;2023-05-31T03:15:41;9.90;99.90
30572;DHT22;17348;50.948;10.696;2023-05-31T03:18:43;9.80;99.90
30572;DHT22;17348;50.948;10.696;2023-05-31T03:21:45;9.80;99.90
30572;DHT22;17348;50.948;10.696;2023-05-31T03:24:47;9.80;99.90
30572;DHT22;17348;50.948;10.696;2023-05-31T03:27:50;9.70;99.90
30572;DHT22;17348;50.948;10.696;2023-05-31T03:30:54;9.70;99.90
30572;DHT22;17348;50.948;10.696;2023-05-31T03:33:56;9.70;99.90
30572;DHT22;17348;50.948;10.696;2023-05-31T03:36:58;9.70;99.90
30572;DHT22;17348;50.948;10.696;2023-05-31T03:40:01;9.80;99.90
30572;DHT22;17348;50.948;10.696;2023-05-31T03:43:05;9.80;99.90
30572;DHT22;17348;50.948;10.696;2023-05-31T03:46:08;9.90;99.90
30572;DHT22;17348;50.948;10.696;2023-05-31T03:49:11;10.20;99.90
30572;DHT22;17348;50.948;10.696;2023-05-31T03:52:14;10.20;99.90
30572;DHT22;17348;50.948;10.696;2023-05-31T03:55:17;10.30;99.90
30572;DHT22;17348;50.948;10.696;2023-05-31T03:58:21;10.40;99.90
30572;DHT22;17348;50.948;10.696;2023-05-31T04:01:25;10.50;99.90
30572;DHT22;17348;50.948;10.696;2023-05-31T04:04:28;10.50;99.90
30572;DHT22;17348;50.948;10.696;2023-05-31T04:07:31;10.60;99.90
30572;DHT22;17348;50.948;10.696;2023-05-31T04:10:33;10.60;99.90
30572;DHT22;17348;50.948;10.696;2023-05-31T04:13:36;10.70;99.90
30572;DHT22;17348;50.948;10.696;2023-05-31T04:16:39;10.70;99.90
30572;DHT22;17348;50.948;10.696;2023-05-31T04:19:42;10.60;99.90
30572;DHT22;17348;50.948;10.696;2023-05-31T04:22:44;10.60;99.90
30572;DHT22;17348;50.948;10.696;2023-05-31T04:25:46;10.60;99.90
30572;DHT22;17348;50.948;10.696;2023-05-31T04:28:49;10.60;99.90
30572;DHT22;17348;50.948;10.696;2023-05-31T04:31:56;10.70;99.90
30572;DHT22;17348;50.948;10.696;2023-05-31T04:34:58;10.80;99.90
30572;DHT22;17348;50.948;10.696;2023-05-31T04:38:04;11.10;99.90
30572;DHT22;17348;50.948;10.696;2023-05-31T04:41:09;11.20;99.90
30572;DHT22;17348;50.948;10.696;2023-05-31T04:44:11;11.30;99.90
30572;DHT22;17348;50.948;10.696;2023-05-31T04:47:15;11.40;99.90
30572;DHT22;17348;50.948;10.696;2023-05-31T04:50:18;11.50;99.90
30572;DHT22;17348;50.948;10.696;2023-05-31T04:53:20;11.50;99.90
30572;DHT22;17348;50.948;10.696;2023-05-31T04:56:22;11.60;99.90
30572;DHT22;17348;50.948;10.696;2023-05-31T04:59:26;11.70;99.90
30572;DHT22;17348;50.948;10.696;2023-05-31T05:02:29;11.80;99.90
30572;DHT22;17348;50.948;10.696;2023-05-31T05:05:31;11.90;99.90
30572;DHT22;17348;50.948;10.696;2023-05-31T05:08:34;12.10;99.90
30572;DHT22;17348;50.948;10.696;2023-05-31T05:11:36;12.20;99.90
30572;DHT22;17348;50.948;10.696;2023-05-31T05:14:39;12.20;99.90
30572;DHT22;17348;50.948;10.696;2023-05-31T05:17:44;12.30;99.90
30572;DHT22;17348;50.948;10.696;2023-05-31T05:20:48;12.40;99.90
30572;DHT22;17348;50.948;10.696;2023-05-31T05:23:50;12.50;99.90
30572;DHT22;17348;50.948;10.696;2023-05-31T05:26:53;12.70;99.90
30572;DHT22;17348;50.948;10.696;2023-05-31T05:29:55;12.80;99.90
30572;DHT22;17348;50.948;10.696;2023-05-31T05:32:59;13.00;99.90
30572;DHT22;17348;50.948;10.696;2023-05-31T05:36:01;13.10;99.90
30572;DHT22;17348;50.948;10.696;2023-05-31T05:39:04;13.30;99.90
30572;DHT22;17348;50.948;10.696;2023-05-31T05:42:07;13.40;99.90
30572;DHT22;17348;50.948;10.696;2023-05-31T05:45:11;13.60;99.90
30572;DHT22;17348;50.948;10.696;2023-05-31T05:48:14;13.70;99.90
30572;DHT22;17348;50.948;10.696;2023-05-31T05:51:17;13.80;99.90
30572;DHT22;17348;50.948;10.696;2023-05-31T05:54:19;14.00;99.90
30572;DHT22;17348;50.948;10.696;2023-05-31T05:57:21;14.10;99.90
30572;DHT22;17348;50.948;10.696;2023-05-31T06:00:25;14.20;99.90
30572;DHT22;17348;50.948;10.696;2023-05-31T06:03:29;14.50;99.90
30572;DHT22;17348;50.948;10.696;2023-05-31T06:06:33;14.80;99.90
30572;DHT22;17348;50.948;10.696;2023-05-31T06:09:36;14.80;99.90
30572;DHT22;17348;50.948;10.696;2023-05-31T06:12:39;14.80;99.90
30572;DHT22;17348;50.948;10.696;2023-05-31T06:15:41;14.90;99.90
30572;DHT22;17348;50.948;10.696;2023-05-31T06:18:45;15.00;99.90
30572;DHT22;17348;50.948;10.696;2023-05-31T06:21:47;15.10;99.90
30572;DHT22;17348;50.948;10.696;2023-05-31T06:24:50;15.20;99.90
30572;DHT22;17348;50.948;10.696;2023-05-31T06:27:54;15.20;99.90
30572;DHT22;17348;50.948;10.696;2023-05-31T06:30:58;15.20;99.90
30572;DHT22;17348;50.948;10.696;2023-05-31T06:34:03;15.30;99.90
30572;DHT22;17348;50.948;10.696;2023-05-31T06:37:05;15.50;99.90
30572;DHT22;17348;50.948;10.696;2023-05-31T06:40:10;15.60;99.90
30572;DHT22;17348;50.948;10.696;2023-05-31T06:43:12;15.70;99.90
30572;DHT22;17348;50.948;10.696;2023-05-31T06:46:16;15.70;99.90
30572;DHT22;17348;50.948;10.696;2023-05-31T06:49:20;15.70;99.90
30572;DHT22;17348;50.948;10.696;2023-05-31T06:52:22;15.70;99.90
30572;DHT22;17348;50.948;10.696;2023-05-31T06:55:24;15.70;99.90
30572;DHT22;17348;50.948;10.696;2023-05-31T06:58:29;15.70;99.90
30572;DHT22;17348;50.948;10.696;2023-05-31T07:01:32;15.90;99.90
30572;DHT22;17348;50.948;10.696;2023-05-31T07:04:38;16.10;99.90
30572;DHT22;17348;50.948;10.696;2023-05-31T07:07:43;16.20;99.90
30572;DHT22;17348;50.948;10.696;2023-05-31T07:10:47;16.20;99.90
30572;DHT22;17348;50.948;10.696;2023-05-31T07:13:49;16.30;99.90
30572;DHT22;17348;50.948;10.696;2023-05-31T07:16:51;16.30;99.90
30572;DHT22;17348;50.948;10.696;2023-05-31T07:19:55;16.40;99.90
30572;DHT22;17348;50.948;10.696;2023-05-31T07:22:57;16.50;99.90
30572;DHT22;17348;50.948;10.696;2023-05-31T07:26:03;16.60;99.90
30572;DHT22;17348;50.948;10.696;2023-05-31T07:29:06;16.60;99.90
30572;DHT22;17348;50.948;10.696;2023-05-31T07:32:09;16.80;99.90
30572;DHT22;17348;50.948;10.696;2023-05-31T07:35:12;16.90;99.90
30572;DHT22;17348;50.948;10.696;2023-05-31T07:38:15;17.00;99.90
30572;DHT22;17348;50.948;10.696;2023-05-31T07:41:17;17.10;99.90
30572;DHT22;17348;50.948;10.696;2023-05-31T07:44:20;17.30;99.90
30572;DHT22;17348;50.948;10.696;2023-05-31T07:47:23;17.80;99.90
30572;DHT22;17348;50.948;10.696;2023-05-31T07:50:27;19.70;99.90
30572;DHT22;17348;50.948;10.696;2023-05-31T07:53:29;19.70;99.90
30572;DHT22;17348;50.948;10.696;2023-05-31T07:56:32;19.30;99.90
30572;DHT22;17348;50.948;10.696;2023-05-31T07:59:34;19.00;99.90
30572;DHT22;17348;50.948;10.696;2023-05-31T08:02:36;18.80;99.90
30572;DHT22;17348;50.948;10.696;2023-05-31T08:05:40;18.60;99.90
30572;DHT22;17348;50.948;10.696;2023-05-31T08:08:42;18.40;99.90
30572;DHT22;17348;50.948;10.696;2023-05-31T08:11:45;18.30;99.90
30572;DHT22;17348;50.948;10.696;2023-05-31T08:14:47;18.20;99.90
30572;DHT22;17348;50.948;10.696;2023-05-31T08:17:49;18.30;99.90
30572;DHT22;17348;50.948;10.696;2023-05-31T08:20:53;18.30;99.90
30572;DHT22;17348;50.948;10.696;2023-05-31T08:23:56;18.50;99.90
30572;DHT22;17348;50.948;10.696;2023-05-31T08:26:59;18.60;99.90
30572;DHT22;17348;50.948;10.696;2023-05-31T08:30:03;18.70;99.90
30572;DHT22;17348;50.948;10.696;2023-05-31T08:33:05;18.90;99.90
30572;DHT22;17348;50.948;10.696;2023-05-31T08:36:09;18.80;99.90
30572;DHT22;17348;50.948;10.696;2023-05-31T08:39:12;18.90;99.90
30572;DHT22;17348;50.948;10.696;2023-05-31T08:42:16;18.90;99.90
30572;DHT22;17348;50.948;10.696;2023-05-31T08:45:20;19.00;99.90
30572;DHT22;17348;50.948;10.696;2023-05-31T08:48:28;19.20;99.90
30572;DHT22;17348;50.948;10.696;2023-05-31T08:51:36;19.30;99.90
30572;DHT22;17348;50.948;10.696;2023-05-31T08:54:39;19.40;99.90
30572;DHT22;17348;50.948;10.696;2023-05-31T08:57:44;19.30;99.90
30572;DHT22;17348;50.948;10.696;2023-05-31T09:00:48;19.40;99.90
30572;DHT22;17348;50.948;10.696;2023-05-31T09:03:52;19.40;99.90
30572;DHT22;17348;50.948;10.696;2023-05-31T09:06:56;19.50;99.90
30572;DHT22;17348;50.948;10.696;2023-05-31T09:09:58;19.60;99.90
30572;DHT22;17348;50.948;10.696;2023-05-31T09:13:04;19.60;99.90
30572;DHT22;17348;50.948;10.696;2023-05-31T09:16:07;19.60;99.90
30572;DHT22;17348;50.948;10.696;2023-05-31T09:19:10;19.70;99.90
30572;DHT22;17348;50.948;10.696;2023-05-31T09:22:14;19.80;99.90
30572;DHT22;17348;50.948;10.696;2023-05-31T09:25:17;19.90;99.90
30572;DHT22;17348;50.948;10.696;2023-05-31T09:28:21;20.10;99.90
30572;DHT22;17348;50.948;10.696;2023-05-31T09:31:23;20.30;99.90
30572;DHT22;17348;50.948;10.696;2023-05-31T09:34:27;20.40;99.90
30572;DHT22;17348;50.948;10.696;2023-05-31T09:37:31;20.40;99.90
30572;DHT22;17348;50.948;10.696;2023-05-31T09:40:34;20.50;99.90
30572;DHT22;17348;50.948;10.696;2023-05-31T09:43:38;20.70;99.90
30572;DHT22;17348;50.948;10.696;2023-05-31T09:46:41;20.70;99.90
30572;DHT22;17348;50.948;10.696;2023-05-31T09:49:43;20.80;99.90
30572;DHT22;17348;50.948;10.696;2023-05-31T09:52:48;21.00;99.90
30572;DHT22;17348;50.948;10.696;2023-05-31T09:55:53;21.30;99.90
30572;DHT22;17348;50.948;10.696;2023-05-31T09:58:57;21.40;99.90
30572;DHT22;17348;50.948;10.696;2023-05-31T10:01:59;21.60;99.90
30572;DHT22;17348;50.948;10.696;2023-05-31T10:05:03;21.80;99.90
30572;DHT22;17348;50.948;10.696;2023-05-31T10:08:08;22.00;99.50
30572;DHT22;17348;50.948;10.696;2023-05-31T10:11:10;22.10;98.70
30572;DHT22;17348;50.948;10.696;2023-05-31T10:14:18;22.20;98.20
30572;DHT22;17348;50.948;10.696;2023-05-31T10:17:24;22.40;97.70
30572;DHT22;17348;50.948;10.696;2023-05-31T10:20:32;22.40;96.90
30572;DHT22;17348;50.948;10.696;2023-05-31T10:23:43;22.40;97.30
30572;DHT22;17348;50.948;10.696;2023-05-31T10:26:56;22.40;96.80
30572;DHT22;17348;50.948;10.696;2023-05-31T10:30:03;22.70;97.80
30572;DHT22;17348;50.948;10.696;2023-05-31T10:33:07;22.80;97.90
30572;DHT22;17348;50.948;10.696;2023-05-31T10:36:09;23.00;96.60
30572;DHT22;17348;50.948;10.696;2023-05-31T10:39:21;22.70;96.80
30572;DHT22;17348;50.948;10.696;2023-05-31T10:42:33;22.80;96.20
30572;DHT22;17348;50.948;10.696;2023-05-31T10:45:39;22.80;96.40
30572;DHT22;17348;50.948;10.696;2023-05-31T10:48:52;22.90;96.50
30572;DHT22;17348;50.948;10.696;2023-05-31T10:52:04;22.90;95.30
30572;DHT22;17348;50.948;10.696;2023-05-31T10:55:18;22.90;94.90
30572;DHT22;17348;50.948;10.696;2023-05-31T10:58:25;22.90;95.20
30572;DHT22;17348;50.948;10.696;2023-05-31T11:01:28;22.90;95.30
30572;DHT22;17348;50.948;10.696;2023-05-31T11:04:31;23.10;95.30
30572;DHT22;17348;50.948;10.696;2023-05-31T11:07:34;23.20;95.60
30572;DHT22;17348;50.948;10.696;2023-05-31T11:10:38;23.30;94.90
30572;DHT22;17348;50.948;10.696;2023-05-31T11:13:57;23.30;94.40
30572;DHT22;17348;50.948;10.696;2023-05-31T11:17:19;23.30;94.10
30572;DHT22;17348;50.948;10.696;2023-05-31T11:20:22;23.40;94.10
30572;DHT22;17348;50.948;10.696;2023-05-31T11:23:29;23.20;92.90
30572;DHT22;17348;50.948;10.696;2023-05-31T11:26:51;23.20;93.20
30572;DHT22;17348;50.948;10.696;2023-05-31T11:29:57;23.20;94.00
30572;DHT22;17348;50.948;10.696;2023-05-31T11:33:03;23.30;93.40
30572;DHT22;17348;50.948;10.696;2023-05-31T11:36:15;23.50;93.10
30572;DHT22;17348;50.948;10.696;2023-05-31T11:39:17;23.40;92.90
30572;DHT22;17348;50.948;10.696;2023-05-31T11:42:22;23.60;93.50
30572;DHT22;17348;50.948;10.696;2023-05-31T11:45:25;23.60;92.50
30572;DHT22;17348;50.948;10.696;2023-05-31T11:48:38;23.50;93.10
30572;DHT22;17348;50.948;10.696;2023-05-31T11:51:42;23.40;93.40
30572;DHT22;17348;50.948;10.696;2023-05-31T11:54:47;23.60;94.10
30572;DHT22;17348;50.948;10.696;2023-05-31T11:57:51;23.60;92.40
30572;DHT22;17348;50.948;10.696;2023-05-31T12:00:58;23.60;92.20
30572;DHT22;17348;50.948;10.696;2023-05-31T12:04:02;23.60;91.80
30572;DHT22;17348;50.948;10.696;2023-05-31T12:07:08;23.70;91.80
30572;DHT22;17348;50.948;10.696;2023-05-31T12:10:11;23.90;92.00
30572;DHT22;17348;50.948;10.696;2023-05-31T12:13:17;24.00;91.80
30572;DHT22;17348;50.948;10.696;2023-05-31T12:16:19;24.00;92.00
30572;DHT22;17348;50.948;10.696;2023-05-31T12:19:22;24.10;92.00
30572;DHT22;17348;50.948;10.696;2023-05-31T12:22:24;24.20;92.50
30572;DHT22;17348;50.948;10.696;2023-05-31T12:25:27;24.40;91.80
30572;DHT22;17348;50.948;10.696;2023-05-31T12:28:31;24.30;91.80
30572;DHT22;17348;50.948;10.696;2023-05-31T12:31:35;24.40;91.80
30572;DHT22;17348;50.948;10.696;2023-05-31T12:34:38;24.40;91.80
30572;DHT22;17348;50.948;10.696;2023-05-31T12:37:41;24.30;91.00
30572;DHT22;17348;50.948;10.696;2023-05-31T12:40:44;24.30;91.30
30572;DHT22;17348;50.948;10.696;2023-05-31T12:43:48;24.30;91.10
30572;DHT22;17348;50.948;10.696;2023-05-31T12:46:51;24.30;92.00
30572;DHT22;17348;50.948;10.696;2023-05-31T12:50:00;24.30;91.30
30572;DHT22;17348;50.948;10.696;2023-05-31T12:53:06;24.60;91.10
30572;DHT22;17348;50.948;10.696;2023-05-31T12:56:09;24.70;90.90
30572;DHT22;17348;50.948;10.696;2023-05-31T12:59:13;24.50;90.00
30572;DHT22;17348;50.948;10.696;2023-05-31T13:02:15;24.30;89.40
30572;DHT22;17348;50.948;10.696;2023-05-31T13:05:18;24.20;90.10
30572;DHT22;17348;50.948;10.696;2023-05-31T13:08:20;24.10;90.50
30572;DHT22;17348;50.948;10.696;2023-05-31T13:11:22;24.10;90.50
30572;DHT22;17348;50.948;10.696;2023-05-31T13:14:26;24.10;89.50
30572;DHT22;17348;50.948;10.696;2023-05-31T13:17:28;23.90;88.50
30572;DHT22;17348;50.948;10.696;2023-05-31T13:20:31;23.90;90.10
30572;DHT22;17348;50.948;10.696;2023-05-31T13:23:33;24.00;90.20
30572;DHT22;17348;50.948;10.696;2023-05-31T13:26:35;24.10;90.50
30572;DHT22;17348;50.948;10.696;2023-05-31T13:29:39;24.20;89.30
30572;DHT22;17348;50.948;10.696;2023-05-31T13:32:41;24.20;87.60
30572;DHT22;17348;50.948;10.696;2023-05-31T13:35:44;24.30;87.60
30572;DHT22;17348;50.948;10.696;2023-05-31T13:38:47;24.30;89.00
30572;DHT22;17348;50.948;10.696;2023-05-31T13:41:50;24.40;89.60
30572;DHT22;17348;50.948;10.696;2023-05-31T13:44:53;24.50;89.80
30572;DHT22;17348;50.948;10.696;2023-05-31T13:47:56;24.60;89.10
30572;DHT22;17348;50.948;10.696;2023-05-31T13:50:59;24.70;88.90
30572;DHT22;17348;50.948;10.696;2023-05-31T13:54:01;24.80;88.00
30572;DHT22;17348;50.948;10.696;2023-05-31T13:57:04;24.90;87.20
30572;DHT22;17348;50.948;10.696;2023-05-31T14:00:08;24.80;86.00
30572;DHT22;17348;50.948;10.696;2023-05-31T14:03:11;24.80;86.30
30572;DHT22;17348;50.948;10.696;2023-05-31T14:06:14;24.80;85.10
30572;DHT22;17348;50.948;10.696;2023-05-31T14:09:17;24.80;86.20
30572;DHT22;17348;50.948;10.696;2023-05-31T14:12:19;24.80;86.80
30572;DHT22;17348;50.948;10.696;2023-05-31T14:15:23;24.80;86.00
30572;DHT22;17348;50.948;10.696;2023-05-31T14:18:27;24.80;85.90
30572;DHT22;17348;50.948;10.696;2023-05-31T14:21:30;24.70;86.60
30572;DHT22;17348;50.948;10.696;2023-05-31T14:24:33;24.70;87.10
30572;DHT22;17348;50.948;10.696;2023-05-31T14:27:35;24.80;86.90
30572;DHT22;17348;50.948;10.696;2023-05-31T14:30:39;25.00;87.00
30572;DHT22;17348;50.948;10.696;2023-05-31T14:33:41;25.10;85.60
30572;DHT22;17348;50.948;10.696;2023-05-31T14:36:44;25.10;85.80
30572;DHT22;17348;50.948;10.696;2023-05-31T14:39:46;24.80;82.40
30572;DHT22;17348;50.948;10.696;2023-05-31T14:42:49;24.80;82.40
30572;DHT22;17348;50.948;10.696;2023-05-31T14:45:52;24.70;83.10
30572;DHT22;17348;50.948;10.696;2023-05-31T14:48:55;24.60;84.10
30572;DHT22;17348;50.948;10.696;2023-05-31T14:51:57;24.60;86.00
30572;DHT22;17348;50.948;10.696;2023-05-31T14:55:00;24.50;84.60
30572;DHT22;17348;50.948;10.696;2023-05-31T14:58:02;24.60;85.10
30572;DHT22;17348;50.948;10.696;2023-05-31T15:01:09;24.50;81.40
30572;DHT22;17348;50.948;10.696;2023-05-31T15:04:14;24.40;84.20
30572;DHT22;17348;50.948;10.696;2023-05-31T15:07:16;24.40;82.80
30572;DHT22;17348;50.948;10.696;2023-05-31T15:10:19;24.50;83.80
30572;DHT22;17348;50.948;10.696;2023-05-31T15:13:22;24.40;83.60
30572;DHT22;17348;50.948;10.696;2023-05-31T15:16:26;24.30;84.30
30572;DHT22;17348;50.948;10.696;2023-05-31T15:19:28;24.20;85.40
30572;DHT22;17348;50.948;10.696;2023-05-31T15:22:30;24.20;86.00
30572;DHT22;17348;50.948;10.696;2023-05-31T15:25:33;24.20;86.50
30572;DHT22;17348;50.948;10.696;2023-05-31T15:28:35;24.30;87.30
30572;DHT22;17348;50.948;10.696;2023-05-31T15:31:39;24.30;88.20
30572;DHT22;17348;50.948;10.696;2023-05-31T15:34:41;24.20;88.40
30572;DHT22;17348;50.948;10.696;2023-05-31T15:37:44;24.00;88.40
30572;DHT22;17348;50.948;10.696;2023-05-31T15:40:46;23.90;89.50
30572;DHT22;17348;50.948;10.696;2023-05-31T15:43:50;23.90;89.60
30572;DHT22;17348;50.948;10.696;2023-05-31T15:46:53;23.90;90.00
30572;DHT22;17348;50.948;10.696;2023-05-31T15:49:59;23.80;90.40
30572;DHT22;17348;50.948;10.696;2023-05-31T15:53:02;23.70;90.50
30572;DHT22;17348;50.948;10.696;2023-05-31T15:56:05;23.70;90.40
30572;DHT22;17348;50.948;10.696;2023-05-31T15:59:07;23.80;90.60
30572;DHT22;17348;50.948;10.696;2023-05-31T16:02:12;23.90;90.20
30572;DHT22;17348;50.948;10.696;2023-05-31T16:05:14;23.80;90.10
30572;DHT22;17348;50.948;10.696;2023-05-31T16:08:17;23.90;90.60
30572;DHT22;17348;50.948;10.696;2023-05-31T16:11:19;24.00;90.50
30572;DHT22;17348;50.948;10.696;2023-05-31T16:14:22;23.90;90.50
30572;DHT22;17348;50.948;10.696;2023-05-31T16:17:25;23.90;90.30
30572;DHT22;17348;50.948;10.696;2023-05-31T16:20:28;23.90;90.20
30572;DHT22;17348;50.948;10.696;2023-05-31T16:23:30;23.90;90.30
30572;DHT22;17348;50.948;10.696;2023-05-31T16:26:33;24.10;90.50
30572;DHT22;17348;50.948;10.696;2023-05-31T16:29:35;23.90;90.40
30572;DHT22;17348;50.948;10.696;2023-05-31T16:32:39;23.90;90.30
30572;DHT22;17348;50.948;10.696;2023-05-31T16:35:41;23.70;90.40
30572;DHT22;17348;50.948;10.696;2023-05-31T16:38:43;23.60;90.60
30572;DHT22;17348;50.948;10.696;2023-05-31T16:41:46;23.50;90.50
30572;DHT22;17348;50.948;10.696;2023-05-31T16:44:48;23.40;91.20
30572;DHT22;17348;50.948;10.696;2023-05-31T16:47:52;23.50;91.40
30572;DHT22;17348;50.948;10.696;2023-05-31T16:50:54;23.40;91.40
30572;DHT22;17348;50.948;10.696;2023-05-31T16:53:57;23.40;91.60
30572;DHT22;17348;50.948;10.696;2023-05-31T16:56:59;23.30;91.80
30572;DHT22;17348;50.948;10.696;2023-05-31T17:00:02;23.20;91.50
30572;DHT22;17348;50.948;10.696;2023-05-31T17:03:06;23.20;91.60
30572;DHT22;17348;50.948;10.696;2023-05-31T17:06:09;23.20;92.20
30572;DHT22;17348;50.948;10.696;2023-05-31T17:09:11;23.20;92.20
30572;DHT22;17348;50.948;10.696;2023-05-31T17:12:13;23.30;92.30
30572;DHT22;17348;50.948;10.696;2023-05-31T17:15:16;23.20;91.80
30572;DHT22;17348;50.948;10.696;2023-05-31T17:18:19;23.10;91.70
30572;DHT22;17348;50.948;10.696;2023-05-31T17:21:22;23.10;91.10
30572;DHT22;17348;50.948;10.696;2023-05-31T17:24:24;23.00;91.40
30572;DHT22;17348;50.948;10.696;2023-05-31T17:27:26;23.00;91.70
30572;DHT22;17348;50.948;10.696;2023-05-31T17:30:29;23.10;91.80
30572;DHT22;17348;50.948;10.696;2023-05-31T17:33:33;23.00;91.40
30572;DHT22;17348;50.948;10.696;2023-05-31T17:36:35;23.00;91.70
30572;DHT22;17348;50.948;10.696;2023-05-31T17:39:38;23.00;91.70
30572;DHT22;17348;50.948;10.696;2023-05-31T17:42:40;23.10;91.70
30572;DHT22;17348;50.948;10.696;2023-05-31T17:45:42;22.90;91.70
30572;DHT22;17348;50.948;10.696;2023-05-31T17:48:47;22.80;92.10
30572;DHT22;17348;50.948;10.696;2023-05-31T17:51:51;22.70;92.00
30572;DHT22;17348;50.948;10.696;2023-05-31T17:54:53;22.60;92.20
30572;DHT22;17348;50.948;10.696;2023-05-31T17:57:55;22.50;92.20
30572;DHT22;17348;50.948;10.696;2023-05-31T18:00:58;22.40;92.30
30572;DHT22;17348;50.948;10.696;2023-05-31T18:04:01;22.20;92.30
30572;DHT22;17348;50.948;10.696;2023-05-31T18:07:04;22.10;92.60
30572;DHT22;17348;50.948;10.696;2023-05-31T18:10:08;22.00;92.90
30572;DHT22;17348;50.948;10.696;2023-05-31T18:13:11;21.90;93.20
30572;DHT22;17348;50.948;10.696;2023-05-31T18:16:13;21.80;93.40
30572;DHT22;17348;50.948;10.696;2023-05-31T18:19:17;21.70;92.90
30572;DHT22;17348;50.948;10.696;2023-05-31T18:22:19;21.70;93.30
30572;DHT22;17348;50.948;10.696;2023-05-31T18:25:22;21.70;93.00
30572;DHT22;17348;50.948;10.696;2023-05-31T18:28:29;21.70;93.20
30572;DHT22;17348;50.948;10.696;2023-05-31T18:31:31;21.70;93.40
30572;DHT22;17348;50.948;10.696;2023-05-31T18:34:35;21.60;93.10
30572;DHT22;17348;50.948;10.696;2023-05-31T18:37:37;21.50;93.10
30572;DHT22;17348;50.948;10.696;2023-05-31T18:40:40;21.50;93.30
30572;DHT22;17348;50.948;10.696;2023-05-31T18:43:42;21.40;93.20
30572;DHT22;17348;50.948;10.696;2023-05-31T18:46:44;21.30;93.40
30572;DHT22;17348;50.948;10.696;2023-05-31T18:49:48;21.20;93.50
30572;DHT22;17348;50.948;10.696;2023-05-31T18:52:51;21.20;93.70
30572;DHT22;17348;50.948;10.696;2023-05-31T18:55:53;21.10;93.90
30572;DHT22;17348;50.948;10.696;2023-05-31T18:58:55;21.00;94.00
30572;DHT22;17348;50.948;10.696;2023-05-31T19:01:58;20.90;94.00
30572;DHT22;17348;50.948;10.696;2023-05-31T19:05:02;20.80;94.30